sensor_id;sensor_type;location;lat;lon;timestamp;P1;durP1;ratioP1;P2;durP2;ratioP2
60665;SDS011;59128;44.642;21.188;2023-04-30T00:01:59;66.43;;;46.08;;
60665;SDS011;59128;44.642;21.188;2023-04-30T00:04:25;54.90;;;38.35;;
60665;SDS011;59128;44.642;21.188;2023-04-30T00:06:51;56.85;;;40.63;;
60665;SDS011;59128;44.642;21.188;2023-04-30T00:09:18;51.80;;;38.20;;
60665;SDS011;59128;44.642;21.188;2023-04-30T00:11:44;49.97;;;37.67;;
60665;SDS011;59128;44.642;21.188;2023-04-30T00:14:10;45.08;;;35.42;;
60665;SDS011;59128;44.642;21.188;2023-04-30T00:16:36;47.60;;;36.35;;
60665;SDS011;59128;44.642;21.188;2023-04-30T00:19:02;54.80;;;39.53;;
60665;SDS011;59128;44.642;21.188;2023-04-30T00:21:28;52.20;;;38.23;;
60665;SDS011;59128;44.642;21.188;2023-04-30T00:23:54;38.95;;;29.58;;
60665;SDS011;59128;44.642;21.188;2023-04-30T00:26:20;29.67;;;23.63;;
60665;SDS011;59128;44.642;21.188;2023-04-30T00:28:46;27.83;;;21.85;;
60665;SDS011;59128;44.642;21.188;2023-04-30T00:31:12;34.33;;;25.20;;
60665;SDS011;59128;44.642;21.188;2023-04-30T00:33:38;37.67;;;25.07;;
60665;SDS011;59128;44.642;21.188;2023-04-30T00:36:04;39.65;;;26.63;;
60665;SDS011;59128;44.642;21.188;2023-04-30T00:38:30;39.65;;;26.45;;
60665;SDS011;59128;44.642;21.188;2023-04-30T00:40:56;31.48;;;24.50;;
60665;SDS011;59128;44.642;21.188;2023-04-30T00:43:23;29.70;;;23.70;;
60665;SDS011;59128;44.642;21.188;2023-04-30T00:45:49;34.05;;;22.85;;
60665;SDS011;59128;44.642;21.188;2023-04-30T00:48:15;43.85;;;27.55;;
60665;SDS011;59128;44.642;21.188;2023-04-30T00:50:41;61.15;;;36.20;;
60665;SDS011;59128;44.642;21.188;2023-04-30T00:53:09;33.27;;;23.00;;
60665;SDS011;59128;44.642;21.188;2023-04-30T00:55:35;33.27;;;22.77;;
60665;SDS011;59128;44.642;21.188;2023-04-30T00:58:01;32.55;;;22.65;;
60665;SDS011;59128;44.642;21.188;2023-04-30T01:00:27;26.88;;;18.63;;
60665;SDS011;59128;44.642;21.188;2023-04-30T01:02:54;21.52;;;16.33;;
60665;SDS011;59128;44.642;21.188;2023-04-30T01:05:20;19.70;;;14.53;;
60665;SDS011;59128;44.642;21.188;2023-04-30T01:07:47;20.30;;;14.77;;
60665;SDS011;59128;44.642;21.188;2023-04-30T01:10:13;22.13;;;14.70;;
60665;SDS011;59128;44.642;21.188;2023-04-30T01:12:57;23.40;;;15.83;;
60665;SDS011;59128;44.642;21.188;2023-04-30T01:18:08;21.23;;;15.35;;
60665;SDS011;59128;44.642;21.188;2023-04-30T01:20:37;22.85;;;16.38;;
60665;SDS011;59128;44.642;21.188;2023-04-30T01:23:10;25.23;;;16.88;;
60665;SDS011;59128;44.642;21.188;2023-04-30T01:28:08;19.98;;;15.40;;
60665;SDS011;59128;44.642;21.188;2023-04-30T01:30:34;18.77;;;15.50;;
60665;SDS011;59128;44.642;21.188;2023-04-30T01:33:01;19.00;;;15.82;;
60665;SDS011;59128;44.642;21.188;2023-04-30T01:38:01;17.33;;;13.82;;
60665;SDS011;59128;44.642;21.188;2023-04-30T01:40:55;19.88;;;15.13;;
60665;SDS011;59128;44.642;21.188;2023-04-30T01:43:19;26.52;;;17.95;;
60665;SDS011;59128;44.642;21.188;2023-04-30T01:51:01;31.42;;;22.95;;
60665;SDS011;59128;44.642;21.188;2023-04-30T01:53:32;23.77;;;18.35;;
60665;SDS011;59128;44.642;21.188;2023-04-30T01:56:03;34.20;;;25.40;;
60665;SDS011;59128;44.642;21.188;2023-04-30T01:58:30;80.80;;;52.67;;
60665;SDS011;59128;44.642;21.188;2023-04-30T02:00:56;42.28;;;29.42;;
60665;SDS011;59128;44.642;21.188;2023-04-30T02:03:23;82.43;;;53.88;;
60665;SDS011;59128;44.642;21.188;2023-04-30T02:05:49;98.82;;;65.72;;
60665;SDS011;59128;44.642;21.188;2023-04-30T02:08:15;34.83;;;26.33;;
60665;SDS011;59128;44.642;21.188;2023-04-30T02:10:41;31.35;;;24.52;;
60665;SDS011;59128;44.642;21.188;2023-04-30T02:13:07;29.97;;;24.00;;
60665;SDS011;59128;44.642;21.188;2023-04-30T02:15:33;24.35;;;20.65;;
60665;SDS011;59128;44.642;21.188;2023-04-30T02:17:59;22.42;;;20.00;;
60665;SDS011;59128;44.642;21.188;2023-04-30T02:20:25;26.25;;;21.50;;
60665;SDS011;59128;44.642;21.188;2023-04-30T02:22:52;31.83;;;24.75;;
60665;SDS011;59128;44.642;21.188;2023-04-30T02:25:18;31.92;;;24.80;;
60665;SDS011;59128;44.642;21.188;2023-04-30T02:27:44;31.17;;;24.40;;
60665;SDS011;59128;44.642;21.188;2023-04-30T02:30:10;34.65;;;26.92;;
60665;SDS011;59128;44.642;21.188;2023-04-30T02:32:36;33.97;;;26.17;;
60665;SDS011;59128;44.642;21.188;2023-04-30T02:35:02;32.97;;;27.00;;
60665;SDS011;59128;44.642;21.188;2023-04-30T02:37:28;45.08;;;35.10;;
60665;SDS011;59128;44.642;21.188;2023-04-30T02:39:54;43.55;;;32.65;;
60665;SDS011;59128;44.642;21.188;2023-04-30T02:42:20;35.08;;;27.73;;
60665;SDS011;59128;44.642;21.188;2023-04-30T02:44:46;31.87;;;25.67;;
60665;SDS011;59128;44.642;21.188;2023-04-30T02:47:12;32.55;;;25.88;;
60665;SDS011;59128;44.642;21.188;2023-04-30T02:49:39;31.65;;;25.25;;
60665;SDS011;59128;44.642;21.188;2023-04-30T02:52:05;30.63;;;25.43;;
60665;SDS011;59128;44.642;21.188;2023-04-30T02:54:33;34.90;;;27.85;;
60665;SDS011;59128;44.642;21.188;2023-04-30T02:56:59;36.50;;;29.00;;
60665;SDS011;59128;44.642;21.188;2023-04-30T02:59:25;34.08;;;27.77;;
60665;SDS011;59128;44.642;21.188;2023-04-30T03:01:51;36.43;;;28.90;;
60665;SDS011;59128;44.642;21.188;2023-04-30T03:04:17;35.55;;;28.15;;
60665;SDS011;59128;44.642;21.188;2023-04-30T03:06:43;38.40;;;28.88;;
60665;SDS011;59128;44.642;21.188;2023-04-30T03:09:10;36.42;;;27.60;;
60665;SDS011;59128;44.642;21.188;2023-04-30T03:11:36;32.07;;;25.87;;
60665;SDS011;59128;44.642;21.188;2023-04-30T03:14:02;31.90;;;25.77;;
60665;SDS011;59128;44.642;21.188;2023-04-30T03:16:28;32.47;;;25.85;;
60665;SDS011;59128;44.642;21.188;2023-04-30T03:18:55;33.05;;;26.70;;
60665;SDS011;59128;44.642;21.188;2023-04-30T03:21:21;29.63;;;26.13;;
60665;SDS011;59128;44.642;21.188;2023-04-30T03:23:47;32.35;;;27.00;;
60665;SDS011;59128;44.642;21.188;2023-04-30T03:26:13;37.15;;;27.42;;
60665;SDS011;59128;44.642;21.188;2023-04-30T03:28:39;32.47;;;26.80;;
60665;SDS011;59128;44.642;21.188;2023-04-30T03:31:05;31.90;;;26.00;;
60665;SDS011;59128;44.642;21.188;2023-04-30T03:33:31;38.67;;;31.70;;
60665;SDS011;59128;44.642;21.188;2023-04-30T03:35:58;46.53;;;36.95;;
60665;SDS011;59128;44.642;21.188;2023-04-30T03:38:24;37.28;;;31.73;;
60665;SDS011;59128;44.642;21.188;2023-04-30T03:40:50;38.75;;;31.00;;
60665;SDS011;59128;44.642;21.188;2023-04-30T03:43:16;40.67;;;32.53;;
60665;SDS011;59128;44.642;21.188;2023-04-30T03:45:42;34.50;;;28.67;;
60665;SDS011;59128;44.642;21.188;2023-04-30T03:48:08;33.23;;;26.63;;
60665;SDS011;59128;44.642;21.188;2023-04-30T03:50:34;33.88;;;25.95;;
60665;SDS011;59128;44.642;21.188;2023-04-30T03:53:00;33.08;;;26.10;;
60665;SDS011;59128;44.642;21.188;2023-04-30T03:55:26;33.50;;;27.08;;
60665;SDS011;59128;44.642;21.188;2023-04-30T03:57:52;31.47;;;26.83;;
60665;SDS011;59128;44.642;21.188;2023-04-30T04:00:19;33.03;;;27.45;;
60665;SDS011;59128;44.642;21.188;2023-04-30T04:02:45;35.78;;;27.95;;
60665;SDS011;59128;44.642;21.188;2023-04-30T04:05:11;33.67;;;27.38;;
60665;SDS011;59128;44.642;21.188;2023-04-30T04:07:37;31.60;;;26.60;;
60665;SDS011;59128;44.642;21.188;2023-04-30T04:10:03;29.95;;;25.45;;
60665;SDS011;59128;44.642;21.188;2023-04-30T04:12:29;30.08;;;24.35;;
60665;SDS011;59128;44.642;21.188;2023-04-30T04:14:55;24.95;;;22.00;;
60665;SDS011;59128;44.642;21.188;2023-04-30T04:17:21;27.10;;;23.15;;
60665;SDS011;59128;44.642;21.188;2023-04-30T04:19:48;44.50;;;33.08;;
60665;SDS011;59128;44.642;21.188;2023-04-30T04:22:14;39.55;;;28.90;;
60665;SDS011;59128;44.642;21.188;2023-04-30T04:24:40;38.35;;;29.13;;
60665;SDS011;59128;44.642;21.188;2023-04-30T04:27:06;32.63;;;25.10;;
60665;SDS011;59128;44.642;21.188;2023-04-30T04:29:32;27.80;;;21.58;;
60665;SDS011;59128;44.642;21.188;2023-04-30T04:31:58;33.15;;;22.90;;
60665;SDS011;59128;44.642;21.188;2023-04-30T04:34:26;45.73;;;29.20;;
60665;SDS011;59128;44.642;21.188;2023-04-30T04:36:52;56.42;;;35.50;;
60665;SDS011;59128;44.642;21.188;2023-04-30T04:39:18;43.85;;;29.50;;
60665;SDS011;59128;44.642;21.188;2023-04-30T04:41:44;36.83;;;24.80;;
60665;SDS011;59128;44.642;21.188;2023-04-30T04:44:11;29.27;;;20.98;;
60665;SDS011;59128;44.642;21.188;2023-04-30T04:46:37;37.03;;;27.05;;
60665;SDS011;59128;44.642;21.188;2023-04-30T04:49:03;45.65;;;31.95;;
60665;SDS011;59128;44.642;21.188;2023-04-30T04:51:30;40.47;;;29.67;;
60665;SDS011;59128;44.642;21.188;2023-04-30T04:53:57;42.20;;;29.90;;
60665;SDS011;59128;44.642;21.188;2023-04-30T04:56:23;35.25;;;27.33;;
60665;SDS011;59128;44.642;21.188;2023-04-30T04:58:49;27.08;;;21.67;;
60665;SDS011;59128;44.642;21.188;2023-04-30T05:01:15;25.73;;;20.57;;
60665;SDS011;59128;44.642;21.188;2023-04-30T05:03:41;21.63;;;18.73;;
60665;SDS011;59128;44.642;21.188;2023-04-30T05:06:07;29.30;;;22.77;;
60665;SDS011;59128;44.642;21.188;2023-04-30T05:08:33;31.33;;;23.13;;
60665;SDS011;59128;44.642;21.188;2023-04-30T05:11:00;25.70;;;21.48;;
60665;SDS011;59128;44.642;21.188;2023-04-30T05:13:26;43.00;;;29.87;;
60665;SDS011;59128;44.642;21.188;2023-04-30T05:15:52;30.70;;;24.63;;
60665;SDS011;59128;44.642;21.188;2023-04-30T05:18:19;30.42;;;24.65;;
60665;SDS011;59128;44.642;21.188;2023-04-30T05:20:45;34.17;;;27.63;;
60665;SDS011;59128;44.642;21.188;2023-04-30T05:23:11;33.85;;;26.30;;
60665;SDS011;59128;44.642;21.188;2023-04-30T05:25:37;30.33;;;24.90;;
60665;SDS011;59128;44.642;21.188;2023-04-30T05:28:03;29.57;;;25.27;;
60665;SDS011;59128;44.642;21.188;2023-04-30T05:30:30;28.98;;;25.58;;
60665;SDS011;59128;44.642;21.188;2023-04-30T05:32:56;29.98;;;25.73;;
60665;SDS011;59128;44.642;21.188;2023-04-30T05:35:22;33.58;;;26.98;;
60665;SDS011;59128;44.642;21.188;2023-04-30T05:37:49;37.55;;;28.83;;
60665;SDS011;59128;44.642;21.188;2023-04-30T05:40:15;37.58;;;28.35;;
60665;SDS011;59128;44.642;21.188;2023-04-30T05:42:41;39.50;;;30.30;;
60665;SDS011;59128;44.642;21.188;2023-04-30T05:45:08;41.78;;;31.75;;
60665;SDS011;59128;44.642;21.188;2023-04-30T05:47:34;43.35;;;33.65;;
60665;SDS011;59128;44.642;21.188;2023-04-30T05:50:00;41.25;;;33.47;;
60665;SDS011;59128;44.642;21.188;2023-04-30T05:52:26;41.85;;;34.78;;
60665;SDS011;59128;44.642;21.188;2023-04-30T05:54:52;41.30;;;34.63;;
60665;SDS011;59128;44.642;21.188;2023-04-30T05:57:18;37.65;;;30.35;;
60665;SDS011;59128;44.642;21.188;2023-04-30T05:59:44;32.57;;;27.27;;
60665;SDS011;59128;44.642;21.188;2023-04-30T06:02:10;34.20;;;28.08;;
60665;SDS011;59128;44.642;21.188;2023-04-30T06:04:36;35.22;;;30.50;;
60665;SDS011;59128;44.642;21.188;2023-04-30T06:07:02;33.35;;;28.63;;
60665;SDS011;59128;44.642;21.188;2023-04-30T06:09:28;33.58;;;28.40;;
60665;SDS011;59128;44.642;21.188;2023-04-30T06:11:55;32.53;;;27.42;;
60665;SDS011;59128;44.642;21.188;2023-04-30T06:14:21;33.53;;;27.53;;
60665;SDS011;59128;44.642;21.188;2023-04-30T06:16:47;34.20;;;29.15;;
60665;SDS011;59128;44.642;21.188;2023-04-30T06:19:14;34.17;;;29.33;;
60665;SDS011;59128;44.642;21.188;2023-04-30T06:21:40;34.42;;;28.75;;
60665;SDS011;59128;44.642;21.188;2023-04-30T06:24:08;28.98;;;25.67;;
60665;SDS011;59128;44.642;21.188;2023-04-30T06:26:34;29.73;;;25.20;;
60665;SDS011;59128;44.642;21.188;2023-04-30T06:29:00;29.60;;;24.70;;
60665;SDS011;59128;44.642;21.188;2023-04-30T06:31:26;29.48;;;24.38;;
60665;SDS011;59128;44.642;21.188;2023-04-30T06:33:52;28.30;;;23.40;;
60665;SDS011;59128;44.642;21.188;2023-04-30T06:36:18;27.98;;;22.92;;
60665;SDS011;59128;44.642;21.188;2023-04-30T06:38:45;25.65;;;22.83;;
60665;SDS011;59128;44.642;21.188;2023-04-30T06:41:11;23.90;;;20.27;;
60665;SDS011;59128;44.642;21.188;2023-04-30T06:43:38;22.07;;;18.57;;
60665;SDS011;59128;44.642;21.188;2023-04-30T06:46:04;21.05;;;18.80;;
60665;SDS011;59128;44.642;21.188;2023-04-30T06:48:33;20.73;;;18.27;;
60665;SDS011;59128;44.642;21.188;2023-04-30T06:50:59;18.93;;;16.10;;
60665;SDS011;59128;44.642;21.188;2023-04-30T06:53:25;20.13;;;17.23;;
60665;SDS011;59128;44.642;21.188;2023-04-30T06:55:51;18.85;;;16.20;;
60665;SDS011;59128;44.642;21.188;2023-04-30T06:58:17;19.90;;;16.42;;
60665;SDS011;59128;44.642;21.188;2023-04-30T07:00:44;20.38;;;16.02;;
60665;SDS011;59128;44.642;21.188;2023-04-30T07:03:10;20.52;;;16.90;;
60665;SDS011;59128;44.642;21.188;2023-04-30T07:05:36;19.25;;;16.85;;
60665;SDS011;59128;44.642;21.188;2023-04-30T07:13:44;17.80;;;14.25;;
60665;SDS011;59128;44.642;21.188;2023-04-30T07:16:10;16.70;;;12.50;;
60665;SDS011;59128;44.642;21.188;2023-04-30T07:18:36;13.85;;;11.73;;
60665;SDS011;59128;44.642;21.188;2023-04-30T07:21:03;14.77;;;12.38;;
60665;SDS011;59128;44.642;21.188;2023-04-30T07:23:29;13.70;;;11.20;;
60665;SDS011;59128;44.642;21.188;2023-04-30T07:25:55;12.70;;;11.00;;
60665;SDS011;59128;44.642;21.188;2023-04-30T07:28:21;12.60;;;11.27;;
60665;SDS011;59128;44.642;21.188;2023-04-30T07:30:47;12.38;;;10.93;;
60665;SDS011;59128;44.642;21.188;2023-04-30T07:33:13;12.40;;;10.70;;
60665;SDS011;59128;44.642;21.188;2023-04-30T07:35:40;12.95;;;10.50;;
60665;SDS011;59128;44.642;21.188;2023-04-30T07:38:06;12.15;;;10.32;;
60665;SDS011;59128;44.642;21.188;2023-04-30T07:40:32;211.55;;;165.23;;
60665;SDS011;59128;44.642;21.188;2023-04-30T07:42:58;22.77;;;20.33;;
60665;SDS011;59128;44.642;21.188;2023-04-30T07:45:24;25.48;;;20.13;;
60665;SDS011;59128;44.642;21.188;2023-04-30T07:47:50;11.70;;;8.55;;
60665;SDS011;59128;44.642;21.188;2023-04-30T07:50:16;12.50;;;10.25;;
60665;SDS011;59128;44.642;21.188;2023-04-30T07:52:42;14.35;;;11.02;;
60665;SDS011;59128;44.642;21.188;2023-04-30T07:55:09;13.82;;;8.38;;
60665;SDS011;59128;44.642;21.188;2023-04-30T07:57:35;10.35;;;7.97;;
60665;SDS011;59128;44.642;21.188;2023-04-30T08:00:01;14.25;;;12.32;;
60665;SDS011;59128;44.642;21.188;2023-04-30T08:02:28;7.00;;;6.30;;
60665;SDS011;59128;44.642;21.188;2023-04-30T08:04:54;7.78;;;6.20;;
60665;SDS011;59128;44.642;21.188;2023-04-30T08:07:20;8.80;;;5.90;;
60665;SDS011;59128;44.642;21.188;2023-04-30T08:09:47;11.80;;;8.23;;
60665;SDS011;59128;44.642;21.188;2023-04-30T08:12:13;7.25;;;5.82;;
60665;SDS011;59128;44.642;21.188;2023-04-30T08:14:39;5.35;;;4.25;;
60665;SDS011;59128;44.642;21.188;2023-04-30T08:17:05;4.55;;;3.45;;
60665;SDS011;59128;44.642;21.188;2023-04-30T08:19:31;4.65;;;3.38;;
60665;SDS011;59128;44.642;21.188;2023-04-30T08:21:57;4.63;;;3.63;;
60665;SDS011;59128;44.642;21.188;2023-04-30T08:24:25;5.95;;;4.10;;
60665;SDS011;59128;44.642;21.188;2023-04-30T08:26:51;4.20;;;3.80;;
60665;SDS011;59128;44.642;21.188;2023-04-30T08:29:17;7.20;;;4.45;;
60665;SDS011;59128;44.642;21.188;2023-04-30T08:31:43;4.93;;;4.40;;
60665;SDS011;59128;44.642;21.188;2023-04-30T08:34:09;5.75;;;4.63;;
60665;SDS011;59128;44.642;21.188;2023-04-30T08:36:35;6.65;;;5.07;;
60665;SDS011;59128;44.642;21.188;2023-04-30T08:39:01;7.22;;;6.50;;
60665;SDS011;59128;44.642;21.188;2023-04-30T08:41:29;7.85;;;6.72;;
60665;SDS011;59128;44.642;21.188;2023-04-30T08:43:59;7.00;;;5.90;;
60665;SDS011;59128;44.642;21.188;2023-04-30T08:46:26;11.15;;;7.75;;
60665;SDS011;59128;44.642;21.188;2023-04-30T08:48:54;8.05;;;6.65;;
60665;SDS011;59128;44.642;21.188;2023-04-30T08:51:20;7.80;;;5.90;;
60665;SDS011;59128;44.642;21.188;2023-04-30T08:53:47;10.10;;;6.05;;
60665;SDS011;59128;44.642;21.188;2023-04-30T08:56:14;6.85;;;5.22;;
60665;SDS011;59128;44.642;21.188;2023-04-30T08:58:41;6.20;;;5.60;;
60665;SDS011;59128;44.642;21.188;2023-04-30T09:01:07;12.60;;;6.13;;
60665;SDS011;59128;44.642;21.188;2023-04-30T09:03:35;6.38;;;5.78;;
60665;SDS011;59128;44.642;21.188;2023-04-30T09:06:01;7.07;;;6.38;;
60665;SDS011;59128;44.642;21.188;2023-04-30T09:13:51;7.20;;;6.50;;
60665;SDS011;59128;44.642;21.188;2023-04-30T09:16:18;7.85;;;6.70;;
60665;SDS011;59128;44.642;21.188;2023-04-30T09:18:44;7.45;;;6.70;;
60665;SDS011;59128;44.642;21.188;2023-04-30T09:21:11;8.48;;;6.70;;
60665;SDS011;59128;44.642;21.188;2023-04-30T09:23:45;8.00;;;6.40;;
60665;SDS011;59128;44.642;21.188;2023-04-30T09:26:20;7.85;;;6.35;;
60665;SDS011;59128;44.642;21.188;2023-04-30T09:28:56;8.18;;;7.10;;
60665;SDS011;59128;44.642;21.188;2023-04-30T09:31:22;7.30;;;6.38;;
60665;SDS011;59128;44.642;21.188;2023-04-30T09:33:50;7.35;;;6.65;;
60665;SDS011;59128;44.642;21.188;2023-04-30T09:36:16;6.50;;;5.85;;
60665;SDS011;59128;44.642;21.188;2023-04-30T09:38:42;6.78;;;6.07;;
60665;SDS011;59128;44.642;21.188;2023-04-30T09:41:19;11.68;;;10.57;;
60665;SDS011;59128;44.642;21.188;2023-04-30T09:43:47;6.90;;;5.67;;
60665;SDS011;59128;44.642;21.188;2023-04-30T09:46:13;6.27;;;5.67;;
60665;SDS011;59128;44.642;21.188;2023-04-30T09:48:42;7.03;;;6.00;;
60665;SDS011;59128;44.642;21.188;2023-04-30T09:51:09;6.47;;;5.88;;
60665;SDS011;59128;44.642;21.188;2023-04-30T09:53:39;11.88;;;10.68;;
60665;SDS011;59128;44.642;21.188;2023-04-30T09:56:07;8.23;;;6.93;;
60665;SDS011;59128;44.642;21.188;2023-04-30T09:58:37;6.85;;;6.22;;
60665;SDS011;59128;44.642;21.188;2023-04-30T10:01:06;7.53;;;6.00;;
60665;SDS011;59128;44.642;21.188;2023-04-30T10:03:35;9.60;;;8.23;;
60665;SDS011;59128;44.642;21.188;2023-04-30T10:06:02;9.20;;;8.10;;
60665;SDS011;59128;44.642;21.188;2023-04-30T10:08:39;8.45;;;7.00;;
60665;SDS011;59128;44.642;21.188;2023-04-30T10:11:06;8.45;;;7.55;;
60665;SDS011;59128;44.642;21.188;2023-04-30T10:13:54;16.52;;;13.70;;
60665;SDS011;59128;44.642;21.188;2023-04-30T10:19:16;10.07;;;8.15;;
60665;SDS011;59128;44.642;21.188;2023-04-30T10:21:44;7.95;;;6.47;;
60665;SDS011;59128;44.642;21.188;2023-04-30T10:24:12;7.07;;;4.80;;
60665;SDS011;59128;44.642;21.188;2023-04-30T10:26:38;8.48;;;5.65;;
60665;SDS011;59128;44.642;21.188;2023-04-30T10:29:05;7.63;;;5.03;;
60665;SDS011;59128;44.642;21.188;2023-04-30T10:31:32;7.40;;;5.40;;
60665;SDS011;59128;44.642;21.188;2023-04-30T10:39:26;12.05;;;10.38;;
60665;SDS011;59128;44.642;21.188;2023-04-30T10:42:02;12.77;;;10.10;;
60665;SDS011;59128;44.642;21.188;2023-04-30T10:44:32;8.13;;;6.18;;
60665;SDS011;59128;44.642;21.188;2023-04-30T10:47:02;8.13;;;6.93;;
60665;SDS011;59128;44.642;21.188;2023-04-30T10:49:28;8.88;;;7.00;;
60665;SDS011;59128;44.642;21.188;2023-04-30T10:51:57;8.27;;;7.50;;
60665;SDS011;59128;44.642;21.188;2023-04-30T10:54:28;7.57;;;6.20;;
60665;SDS011;59128;44.642;21.188;2023-04-30T10:57:08;13.07;;;11.18;;
60665;SDS011;59128;44.642;21.188;2023-04-30T10:59:35;22.83;;;17.65;;
60665;SDS011;59128;44.642;21.188;2023-04-30T11:02:01;14.50;;;11.60;;
60665;SDS011;59128;44.642;21.188;2023-04-30T11:04:27;13.18;;;10.98;;
60665;SDS011;59128;44.642;21.188;2023-04-30T11:06:54;24.63;;;20.65;;
60665;SDS011;59128;44.642;21.188;2023-04-30T11:09:40;26.08;;;19.95;;
60665;SDS011;59128;44.642;21.188;2023-04-30T11:12:11;10.90;;;9.40;;
60665;SDS011;59128;44.642;21.188;2023-04-30T11:14:41;13.07;;;10.18;;
60665;SDS011;59128;44.642;21.188;2023-04-30T11:17:08;11.52;;;10.43;;
60665;SDS011;59128;44.642;21.188;2023-04-30T11:19:35;17.77;;;15.98;;
60665;SDS011;59128;44.642;21.188;2023-04-30T11:27:26;14.32;;;12.82;;
60665;SDS011;59128;44.642;21.188;2023-04-30T11:29:52;14.70;;;13.10;;
60665;SDS011;59128;44.642;21.188;2023-04-30T11:32:19;10.40;;;8.07;;
60665;SDS011;59128;44.642;21.188;2023-04-30T11:34:45;7.18;;;6.45;;
60665;SDS011;59128;44.642;21.188;2023-04-30T11:37:12;8.55;;;6.53;;
60665;SDS011;59128;44.642;21.188;2023-04-30T11:39:39;9.88;;;7.35;;
60665;SDS011;59128;44.642;21.188;2023-04-30T11:42:05;10.57;;;7.85;;
60665;SDS011;59128;44.642;21.188;2023-04-30T11:44:32;12.20;;;8.77;;
60665;SDS011;59128;44.642;21.188;2023-04-30T11:46:58;9.57;;;7.72;;
60665;SDS011;59128;44.642;21.188;2023-04-30T11:49:25;6.38;;;5.20;;
60665;SDS011;59128;44.642;21.188;2023-04-30T11:51:51;3.58;;;3.10;;
60665;SDS011;59128;44.642;21.188;2023-04-30T11:54:18;3.42;;;2.40;;
60665;SDS011;59128;44.642;21.188;2023-04-30T11:56:47;3.58;;;2.00;;
60665;SDS011;59128;44.642;21.188;2023-04-30T11:59:14;1.60;;;1.50;;
60665;SDS011;59128;44.642;21.188;2023-04-30T12:01:41;1.95;;;1.70;;
60665;SDS011;59128;44.642;21.188;2023-04-30T12:04:08;3.30;;;2.53;;
60665;SDS011;59128;44.642;21.188;2023-04-30T12:06:34;14.30;;;11.68;;
60665;SDS011;59128;44.642;21.188;2023-04-30T12:09:01;16.30;;;12.63;;
60665;SDS011;59128;44.642;21.188;2023-04-30T12:11:29;5.78;;;5.18;;
60665;SDS011;59128;44.642;21.188;2023-04-30T12:13:57;4.35;;;3.70;;
60665;SDS011;59128;44.642;21.188;2023-04-30T12:16:27;4.63;;;3.35;;
60665;SDS011;59128;44.642;21.188;2023-04-30T12:18:53;2.97;;;2.67;;
60665;SDS011;59128;44.642;21.188;2023-04-30T12:21:20;4.43;;;3.25;;
60665;SDS011;59128;44.642;21.188;2023-04-30T12:23:47;7.25;;;6.50;;
60665;SDS011;59128;44.642;21.188;2023-04-30T12:26:13;3.33;;;3.03;;
60665;SDS011;59128;44.642;21.188;2023-04-30T12:28:39;4.13;;;3.20;;
60665;SDS011;59128;44.642;21.188;2023-04-30T12:31:05;3.60;;;3.10;;
60665;SDS011;59128;44.642;21.188;2023-04-30T12:33:31;3.83;;;3.38;;
60665;SDS011;59128;44.642;21.188;2023-04-30T12:35:57;2.92;;;2.40;;
60665;SDS011;59128;44.642;21.188;2023-04-30T12:38:23;2.42;;;1.55;;
60665;SDS011;59128;44.642;21.188;2023-04-30T12:40:49;1.67;;;1.45;;
60665;SDS011;59128;44.642;21.188;2023-04-30T12:43:16;1.67;;;1.58;;
60665;SDS011;59128;44.642;21.188;2023-04-30T12:45:52;2.67;;;1.55;;
60665;SDS011;59128;44.642;21.188;2023-04-30T12:48:20;8.75;;;2.40;;
60665;SDS011;59128;44.642;21.188;2023-04-30T12:51:08;3.30;;;2.65;;
60665;SDS011;59128;44.642;21.188;2023-04-30T12:53:34;3.10;;;1.73;;
60665;SDS011;59128;44.642;21.188;2023-04-30T12:56:10;2.08;;;1.80;;
60665;SDS011;59128;44.642;21.188;2023-04-30T12:58:37;1.98;;;1.70;;
60665;SDS011;59128;44.642;21.188;2023-04-30T13:01:03;11.75;;;10.18;;
60665;SDS011;59128;44.642;21.188;2023-04-30T13:03:29;5.47;;;4.82;;
60665;SDS011;59128;44.642;21.188;2023-04-30T13:05:55;9.33;;;8.13;;
60665;SDS011;59128;44.642;21.188;2023-04-30T13:08:23;7.72;;;6.95;;
60665;SDS011;59128;44.642;21.188;2023-04-30T13:10:49;4.20;;;3.67;;
60665;SDS011;59128;44.642;21.188;2023-04-30T13:13:16;3.50;;;3.10;;
60665;SDS011;59128;44.642;21.188;2023-04-30T13:15:44;3.28;;;1.90;;
60665;SDS011;59128;44.642;21.188;2023-04-30T13:18:10;2.90;;;2.70;;
60665;SDS011;59128;44.642;21.188;2023-04-30T13:20:36;4.00;;;3.27;;
60665;SDS011;59128;44.642;21.188;2023-04-30T13:23:03;2.00;;;1.58;;
60665;SDS011;59128;44.642;21.188;2023-04-30T13:25:29;2.70;;;1.83;;
60665;SDS011;59128;44.642;21.188;2023-04-30T13:27:55;2.10;;;1.50;;
60665;SDS011;59128;44.642;21.188;2023-04-30T13:30:22;1.80;;;1.70;;
60665;SDS011;59128;44.642;21.188;2023-04-30T13:32:48;1.92;;;1.83;;
60665;SDS011;59128;44.642;21.188;2023-04-30T13:35:14;3.03;;;2.13;;
60665;SDS011;59128;44.642;21.188;2023-04-30T13:37:40;2.10;;;1.60;;
60665;SDS011;59128;44.642;21.188;2023-04-30T13:40:06;1.75;;;1.60;;
60665;SDS011;59128;44.642;21.188;2023-04-30T13:42:35;2.22;;;1.95;;
60665;SDS011;59128;44.642;21.188;2023-04-30T13:45:01;2.13;;;1.90;;
60665;SDS011;59128;44.642;21.188;2023-04-30T13:47:28;2.10;;;1.90;;
60665;SDS011;59128;44.642;21.188;2023-04-30T13:49:54;2.65;;;2.40;;
60665;SDS011;59128;44.642;21.188;2023-04-30T13:52:20;3.22;;;2.92;;
60665;SDS011;59128;44.642;21.188;2023-04-30T13:54:46;3.03;;;2.72;;
60665;SDS011;59128;44.642;21.188;2023-04-30T13:57:12;3.30;;;2.60;;
60665;SDS011;59128;44.642;21.188;2023-04-30T13:59:39;2.40;;;2.20;;
60665;SDS011;59128;44.642;21.188;2023-04-30T14:02:05;3.10;;;2.45;;
60665;SDS011;59128;44.642;21.188;2023-04-30T14:04:31;2.50;;;2.30;;
60665;SDS011;59128;44.642;21.188;2023-04-30T14:06:57;2.40;;;2.10;;
60665;SDS011;59128;44.642;21.188;2023-04-30T14:09:24;3.20;;;2.90;;
60665;SDS011;59128;44.642;21.188;2023-04-30T14:11:50;2.85;;;2.65;;
60665;SDS011;59128;44.642;21.188;2023-04-30T14:14:16;3.22;;;2.55;;
60665;SDS011;59128;44.642;21.188;2023-04-30T14:16:42;3.00;;;2.60;;
60665;SDS011;59128;44.642;21.188;2023-04-30T14:19:09;3.67;;;3.38;;
60665;SDS011;59128;44.642;21.188;2023-04-30T14:21:35;2.70;;;2.50;;
60665;SDS011;59128;44.642;21.188;2023-04-30T14:24:01;2.72;;;2.53;;
60665;SDS011;59128;44.642;21.188;2023-04-30T14:26:27;3.05;;;2.63;;
60665;SDS011;59128;44.642;21.188;2023-04-30T14:28:53;3.65;;;2.40;;
60665;SDS011;59128;44.642;21.188;2023-04-30T14:31:19;3.70;;;2.90;;
60665;SDS011;59128;44.642;21.188;2023-04-30T14:33:45;3.30;;;2.60;;
60665;SDS011;59128;44.642;21.188;2023-04-30T14:36:11;3.60;;;3.30;;
60665;SDS011;59128;44.642;21.188;2023-04-30T14:38:37;3.28;;;2.97;;
60665;SDS011;59128;44.642;21.188;2023-04-30T14:41:03;3.08;;;2.83;;
60665;SDS011;59128;44.642;21.188;2023-04-30T14:43:29;3.65;;;2.72;;
60665;SDS011;59128;44.642;21.188;2023-04-30T14:45:55;4.85;;;4.40;;
60665;SDS011;59128;44.642;21.188;2023-04-30T14:48:22;5.35;;;4.85;;
60665;SDS011;59128;44.642;21.188;2023-04-30T14:50:48;8.80;;;7.27;;
60665;SDS011;59128;44.642;21.188;2023-04-30T14:53:14;7.35;;;6.50;;
60665;SDS011;59128;44.642;21.188;2023-04-30T14:55:40;4.35;;;3.70;;